Time;durP1;ratioP1;P1;durP2;ratioP2;P2;SDS_P1;SDS_P2;PMS_P1;PMS_P2;Temp;Humidity;BMP_temperature;BMP_pressure;BME280_temperature;BME280_humidity;BME280_pressure;Samples;Min_cycle;Max_cycle;Signal;HPM_P1;HPM_P2
2023/01/20 00:02:01;;;;;;;16.80;8.65;;;;;;;;;;4989159;28;20038;-61
2023/01/20 00:04:26;;;;;;;19.27;8.73;;;;;;;;;;4991243;28;20030;-62
2023/01/20 00:06:51;;;;;;;28.35;11.77;;;;;;;;;;4991489;28;20578;-61
2023/01/20 00:09:17;;;;;;;48.10;18.17;;;;;;;;;;4995132;28;20029;-62
2023/01/20 00:11:43;;;;;;;91.32;33.33;;;;;;;;;;4992037;28;20029;-61
2023/01/20 00:14:09;;;;;;;94.00;33.55;;;;;;;;;;4991597;28;20026;-62
2023/01/20 00:16:35;;;;;;;53.67;21.85;;;;;;;;;;4991733;28;20038;-60
2023/01/20 00:19:00;;;;;;;28.58;12.95;;;;;;;;;;4988317;28;20277;-62
2023/01/20 00:21:26;;;;;;;23.08;10.55;;;;;;;;;;4987448;28;20045;-60
2023/01/20 00:23:51;;;;;;;23.23;9.43;;;;;;;;;;4992792;28;20483;-60
2023/01/20 00:26:22;;;;;;;18.38;8.38;;;;;;;;;;4992346;28;20037;-61
2023/01/20 00:28:48;;;;;;;17.02;8.27;;;;;;;;;;4997106;28;20034;-62
2023/01/20 00:31:21;;;;;;;16.10;8.18;;;;;;;;;;4997681;28;20061;-60
2023/01/20 00:33:49;;;;;;;14.48;8.07;;;;;;;;;;4985604;28;20034;-60
2023/01/20 00:36:16;;;;;;;13.60;7.40;;;;;;;;;;4989975;28;20030;-61
2023/01/20 00:38:41;;;;;;;18.48;7.40;;;;;;;;;;4990405;28;20042;-60
2023/01/20 00:41:07;;;;;;;18.75;7.75;;;;;;;;;;4992008;28;20103;-60
2023/01/20 00:43:33;;;;;;;16.92;8.00;;;;;;;;;;4992267;28;20034;-60
2023/01/20 00:45:58;;;;;;;17.67;8.40;;;;;;;;;;4989841;28;20022;-61
2023/01/20 00:48:24;;;;;;;22.48;9.13;;;;;;;;;;4992282;28;20030;-61
2023/01/20 00:50:49;;;;;;;16.42;7.78;;;;;;;;;;4992430;28;20042;-61
2023/01/20 00:53:15;;;;;;;13.45;7.70;;;;;;;;;;5008579;28;20391;-61
2023/01/20 00:55:40;;;;;;;13.30;6.85;;;;;;;;;;4994304;28;20510;-60
2023/01/20 00:58:05;;;;;;;16.63;7.97;;;;;;;;;;4993053;28;20114;-60
2023/01/20 01:00:31;;;;;;;15.80;7.20;;;;;;;;;;4991059;28;20030;-61
2023/01/20 01:02:56;;;;;;;20.25;7.45;;;;;;;;;;4992123;28;20026;-61
2023/01/20 01:05:22;;;;;;;15.02;7.18;;;;;;;;;;4991983;28;20674;-60
2023/01/20 01:07:48;;;;;;;12.57;6.60;;;;;;;;;;4987891;28;20026;-60
2023/01/20 01:10:13;;;;;;;16.42;6.78;;;;;;;;;;4998348;28;20549;-61
2023/01/20 01:12:39;;;;;;;13.23;6.95;;;;;;;;;;4997210;28;20092;-61
2023/01/20 01:15:04;;;;;;;11.27;6.57;;;;;;;;;;4990480;28;20084;-61
2023/01/20 01:17:30;;;;;;;16.20;6.90;;;;;;;;;;4988069;28;20112;-60
2023/01/20 01:19:55;;;;;;;15.05;7.80;;;;;;;;;;4995297;28;20045;-60
2023/01/20 01:22:21;;;;;;;13.38;6.57;;;;;;;;;;4996640;28;20563;-60
2023/01/20 01:24:47;;;;;;;14.35;7.20;;;;;;;;;;4991410;28;20030;-61
2023/01/20 01:27:12;;;;;;;16.50;7.07;;;;;;;;;;4996105;28;20034;-60
2023/01/20 01:29:38;;;;;;;16.55;7.25;;;;;;;;;;4990842;28;20040;-60
2023/01/20 01:32:04;;;;;;;11.93;6.97;;;;;;;;;;4996575;28;20032;-60
2023/01/20 01:34:30;;;;;;;15.75;7.13;;;;;;;;;;4990193;28;20088;-60
2023/01/20 01:36:55;;;;;;;13.00;6.88;;;;;;;;;;4990186;28;20041;-60
2023/01/20 01:39:21;;;;;;;17.67;6.78;;;;;;;;;;4989800;28;20038;-61
2023/01/20 01:41:47;;;;;;;14.02;6.82;;;;;;;;;;4990679;28;20041;-61
2023/01/20 01:44:13;;;;;;;13.10;7.50;;;;;;;;;;4991628;28;20026;-61
2023/01/20 01:46:39;;;;;;;13.02;7.10;;;;;;;;;;4989072;28;20109;-60
2023/01/20 01:49:27;;;;;;;16.20;7.05;;;;;;;;;;5004751;28;20404;-60
2023/01/20 01:52:01;;;;;;;13.38;7.15;;;;;;;;;;4990350;28;20031;-60
2023/01/20 01:54:31;;;;;;;17.80;7.10;;;;;;;;;;4992419;28;20030;-60
2023/01/20 01:56:56;;;;;;;;;;;;;;;;;;4987669;28;20022;-60
2023/01/20 01:59:21;;;;;;;16.25;7.38;;;;;;;;;;4996774;28;19920;-60
2023/01/20 02:01:52;;;;;;;14.30;7.25;;;;;;;;;;4993649;28;20014;-61
2023/01/20 02:04:23;;;;;;;17.95;7.38;;;;;;;;;;4989372;28;20026;-61
2023/01/20 02:06:52;;;;;;;15.63;6.95;;;;;;;;;;4988164;28;20026;-60
2023/01/20 02:09:17;;;;;;;14.70;7.15;;;;;;;;;;4991016;28;20039;-61
2023/01/20 02:11:47;;;;;;;17.00;6.85;;;;;;;;;;4989623;28;20026;-60
2023/01/20 02:14:15;;;;;;;12.45;6.32;;;;;;;;;;4989644;28;20518;-60
2023/01/20 02:16:50;;;;;;;14.23;6.93;;;;;;;;;;4991561;28;20092;-61
2023/01/20 02:19:46;;;;;;;14.82;7.68;;;;;;;;;;5000100;28;20116;-60
2023/01/20 02:22:49;;;;;;;15.00;7.38;;;;;;;;;;4993540;28;20041;-61
2023/01/20 02:25:35;;;;;;;14.43;7.53;;;;;;;;;;4985524;28;20057;-61
2023/01/20 02:28:01;;;;;;;18.08;7.70;;;;;;;;;;4991977;28;20057;-60
2023/01/20 02:30:32;;;;;;;14.55;7.10;;;;;;;;;;4992451;28;20033;-61
2023/01/20 02:33:02;;;;;;;17.20;7.82;;;;;;;;;;4997829;28;20057;-61
2023/01/20 02:35:40;;;;;;;16.63;7.82;;;;;;;;;;4989163;28;20046;-60
2023/01/20 02:38:20;;;;;;;19.25;8.15;;;;;;;;;;4987000;28;20054;-61
2023/01/20 02:40:55;;;;;;;20.05;8.10;;;;;;;;;;4989968;28;20037;-61
2023/01/20 02:43:33;;;;;;;17.20;7.65;;;;;;;;;;4989160;28;20117;-61
2023/01/20 02:46:19;;;;;;;17.85;8.20;;;;;;;;;;4989209;28;20069;-59
2023/01/20 02:49:09;;;;;;;18.63;7.90;;;;;;;;;;4990245;28;20026;-61
2023/01/20 02:52:04;;;;;;;16.98;8.18;;;;;;;;;;4991424;28;20018;-61
2023/01/20 02:54:33;;;;;;;18.45;8.43;;;;;;;;;;4985052;28;20099;-61
2023/01/20 02:56:59;;;;;;;;;;;;;;;;;;4992913;28;20507;-61
2023/01/20 02:59:30;;;;;;;19.02;7.90;;;;;;;;;;4991843;28;19921;-62
2023/01/20 03:02:09;;;;;;;24.05;8.48;;;;;;;;;;4992317;28;20057;-60
2023/01/20 03:04:40;;;;;;;19.38;7.95;;;;;;;;;;4990137;28;20026;-62
2023/01/20 03:07:08;;;;;;;15.82;7.65;;;;;;;;;;4996184;28;20026;-60
2023/01/20 03:09:38;;;;;;;20.13;8.80;;;;;;;;;;4991245;28;20117;-61
2023/01/20 03:12:11;;;;;;;20.52;9.23;;;;;;;;;;4994492;28;20014;-60
2023/01/20 03:14:36;;;;;;;16.38;8.35;;;;;;;;;;4994225;28;20025;-61
2023/01/20 03:17:02;;;;;;;16.38;8.48;;;;;;;;;;5009098;28;20033;-60
2023/01/20 03:19:27;;;;;;;20.08;9.90;;;;;;;;;;4988480;28;20484;-61
2023/01/20 03:21:52;;;;;;;22.77;9.23;;;;;;;;;;4990378;28;20041;-60
2023/01/20 03:24:19;;;;;;;18.13;9.18;;;;;;;;;;4993180;28;20036;-61
2023/01/20 03:26:45;;;;;;;18.60;8.38;;;;;;;;;;4992819;28;20105;-61
2023/01/20 03:29:11;;;;;;;23.08;9.00;;;;;;;;;;4993974;28;20113;-60
2023/01/20 03:31:41;;;;;;;24.42;9.38;;;;;;;;;;4995982;28;20026;-59
2023/01/20 03:34:12;;;;;;;23.38;9.23;;;;;;;;;;4990047;28;20488;-60
2023/01/20 03:36:39;;;;;;;22.92;9.63;;;;;;;;;;4986592;28;20470;-61
2023/01/20 03:39:05;;;;;;;23.90;10.43;;;;;;;;;;4987230;28;20026;-61
2023/01/20 03:41:51;;;;;;;24.05;10.35;;;;;;;;;;4990214;28;20058;-61
2023/01/20 03:44:21;;;;;;;26.10;10.57;;;;;;;;;;4985734;28;20022;-61
2023/01/20 03:47:03;;;;;;;22.70;9.07;;;;;;;;;;4987830;28;20605;-61
2023/01/20 03:49:37;;;;;;;20.42;9.65;;;;;;;;;;4993392;28;20609;-61
2023/01/20 03:52:43;;;;;;;20.83;9.30;;;;;;;;;;4988684;28;20373;-60
2023/01/20 03:55:13;;;;;;;21.02;8.38;;;;;;;;;;4989676;28;20039;-61
2023/01/20 03:57:47;;;;;;;20.00;9.32;;;;;;;;;;4990943;28;20034;-61
2023/01/20 04:00:13;;;;;;;17.13;8.57;;;;;;;;;;4989363;28;20419;-61
2023/01/20 04:02:40;;;;;;;18.83;9.40;;;;;;;;;;4989402;28;20027;-62
2023/01/20 04:05:07;;;;;;;23.77;10.45;;;;;;;;;;4990103;28;20031;-63
2023/01/20 04:07:34;;;;;;;21.88;9.77;;;;;;;;;;4988992;28;20037;-61
2023/01/20 04:10:05;;;;;;;23.20;9.75;;;;;;;;;;4990788;28;20109;-62
2023/01/20 04:12:31;;;;;;;21.60;9.48;;;;;;;;;;4991474;28;20127;-61
2023/01/20 04:14:56;;;;;;;22.05;9.57;;;;;;;;;;4997347;28;20057;-59
2023/01/20 04:17:27;;;;;;;17.35;8.13;;;;;;;;;;5000852;28;20084;-60
2023/01/20 04:19:53;;;;;;;21.45;8.63;;;;;;;;;;4994069;28;20117;-61
2023/01/20 04:22:23;;;;;;;16.92;8.95;;;;;;;;;;4991061;28;20050;-61
2023/01/20 04:25:11;;;;;;;29.48;9.55;;;;;;;;;;4995841;28;20030;-59
2023/01/20 04:27:36;;;;;;;18.98;8.80;;;;;;;;;;4994864;28;20033;-60
2023/01/20 04:30:02;;;;;;;18.33;9.30;;;;;;;;;;4995814;28;20023;-61
2023/01/20 04:32:27;;;;;;;21.88;8.77;;;;;;;;;;4994133;28;20035;-63
2023/01/20 04:34:52;;;;;;;21.55;9.52;;;;;;;;;;4991522;28;20022;-60
2023/01/20 04:37:18;;;;;;;19.92;9.57;;;;;;;;;;4991875;28;20033;-60
2023/01/20 04:39:43;;;;;;;21.90;9.57;;;;;;;;;;4990982;28;20080;-61
2023/01/20 04:42:10;;;;;;;22.27;9.90;;;;;;;;;;4991674;28;20036;-60
2023/01/20 04:44:35;;;;;;;21.55;10.70;;;;;;;;;;4990753;28;20442;-60
2023/01/20 04:47:01;;;;;;;23.55;10.70;;;;;;;;;;4989369;28;20034;-60
2023/01/20 04:49:26;;;;;;;23.38;9.80;;;;;;;;;;4991634;28;20122;-61
2023/01/20 04:51:52;;;;;;;22.70;11.57;;;;;;;;;;4989766;28;20060;-61
2023/01/20 04:54:17;;;;;;;36.78;16.00;;;;;;;;;;4994373;28;20029;-60
2023/01/20 04:56:43;;;;;;;45.30;17.05;;;;;;;;;;4994038;28;20023;-61
2023/01/20 04:59:08;;;;;;;48.05;17.00;;;;;;;;;;4994566;28;20034;-61
2023/01/20 05:01:33;;;;;;;50.22;17.45;;;;;;;;;;4990797;28;20049;-61
2023/01/20 05:03:59;;;;;;;39.58;14.75;;;;;;;;;;4992703;28;20045;-61
2023/01/20 05:06:24;;;;;;;43.00;16.60;;;;;;;;;;4993226;28;20030;-60
2023/01/20 05:08:50;;;;;;;39.17;15.88;;;;;;;;;;4993645;28;20118;-61
2023/01/20 05:11:15;;;;;;;39.97;16.88;;;;;;;;;;4995435;28;20109;-62
2023/01/20 05:13:40;;;;;;;39.95;16.58;;;;;;;;;;4995282;28;20057;-62
2023/01/20 05:16:06;;;;;;;36.20;15.35;;;;;;;;;;4996293;28;20456;-61
2023/01/20 05:18:33;;;;;;;38.25;16.40;;;;;;;;;;4991627;28;20038;-61
2023/01/20 05:20:58;;;;;;;37.10;17.15;;;;;;;;;;4993995;28;20395;-62
2023/01/20 05:23:23;;;;;;;41.72;18.23;;;;;;;;;;4994293;28;20026;-60
2023/01/20 05:25:52;;;;;;;45.85;18.27;;;;;;;;;;5000414;28;20021;-58
2023/01/20 05:28:18;;;;;;;44.45;19.08;;;;;;;;;;4992852;28;20069;-59
2023/01/20 05:30:43;;;;;;;38.55;17.85;;;;;;;;;;4986204;28;20054;-59
2023/01/20 05:33:10;;;;;;;40.33;17.48;;;;;;;;;;4990387;28;20041;-60
2023/01/20 05:35:37;;;;;;;40.10;17.88;;;;;;;;;;4989714;28;20041;-59
2023/01/20 05:38:02;;;;;;;45.28;18.95;;;;;;;;;;4986415;28;20109;-59
2023/01/20 05:40:27;;;;;;;46.42;18.63;;;;;;;;;;4991626;28;20117;-60
2023/01/20 05:42:53;;;;;;;45.20;18.63;;;;;;;;;;4989357;28;20046;-60
2023/01/20 05:45:18;;;;;;;46.25;18.83;;;;;;;;;;4992377;28;20025;-58
2023/01/20 05:47:44;;;;;;;50.30;17.77;;;;;;;;;;4990073;28;20038;-59
2023/01/20 05:50:10;;;;;;;47.50;18.95;;;;;;;;;;4993420;28;20049;-60
2023/01/20 05:52:35;;;;;;;43.00;17.33;;;;;;;;;;4994506;28;20093;-60
2023/01/20 05:55:00;;;;;;;47.90;19.15;;;;;;;;;;4992484;28;20039;-59
2023/01/20 05:57:26;;;;;;;50.42;20.15;;;;;;;;;;4990213;28;20499;-60
2023/01/20 05:59:51;;;;;;;55.85;20.63;;;;;;;;;;4993908;28;20045;-59
2023/01/20 06:02:18;;;;;;;55.85;21.13;;;;;;;;;;4993213;28;20034;-59
2023/01/20 06:04:47;;;;;;;54.08;21.20;;;;;;;;;;4992617;28;20030;-58
2023/01/20 06:07:13;;;;;;;53.37;21.33;;;;;;;;;;4985523;28;20030;-59
2023/01/20 06:09:39;;;;;;;46.55;14.65;;;;;;;;;;4990812;28;20495;-58
2023/01/20 06:12:04;;;;;;;80.60;22.52;;;;;;;;;;4991548;28;20097;-59
2023/01/20 06:14:29;;;;;;;85.97;27.58;;;;;;;;;;4991540;28;20447;-59
2023/01/20 06:16:55;;;;;;;65.47;24.42;;;;;;;;;;4994853;28;20034;-59
2023/01/20 06:19:20;;;;;;;60.33;25.45;;;;;;;;;;4992599;28;20118;-60
2023/01/20 06:21:46;;;;;;;56.88;23.70;;;;;;;;;;4989353;28;20129;-59
2023/01/20 06:24:12;;;;;;;43.67;20.85;;;;;;;;;;4989485;28;20034;-60
2023/01/20 06:26:37;;;;;;;46.97;20.45;;;;;;;;;;4990030;28;20060;-59
2023/01/20 06:29:02;;;;;;;38.20;18.33;;;;;;;;;;4995369;28;20129;-60
2023/01/20 06:31:28;;;;;;;31.45;15.88;;;;;;;;;;4990750;28;20030;-59
2023/01/20 06:33:55;;;;;;;32.75;16.83;;;;;;;;;;4989598;28;20491;-59
2023/01/20 06:36:20;;;;;;;31.10;16.17;;;;;;;;;;4999887;28;20580;-60
2023/01/20 06:38:49;;;;;;;31.88;16.08;;;;;;;;;;4990216;28;20072;-61
2023/01/20 06:41:16;;;;;;;27.45;15.68;;;;;;;;;;4985005;28;20030;-59
2023/01/20 06:43:41;;;;;;;28.65;14.77;;;;;;;;;;4992147;28;20026;-59
2023/01/20 06:46:10;;;;;;;31.73;19.17;;;;;;;;;;4987980;28;20032;-59
2023/01/20 06:48:35;;;;;;;33.63;20.00;;;;;;;;;;4994105;28;20495;-60
2023/01/20 06:51:06;;;;;;;36.72;19.35;;;;;;;;;;4992107;28;20026;-59
2023/01/20 06:53:32;;;;;;;33.28;17.10;;;;;;;;;;4990837;28;20018;-59
2023/01/20 06:55:59;;;;;;;30.42;16.38;;;;;;;;;;4990858;28;20117;-59
2023/01/20 06:58:26;;;;;;;30.20;16.08;;;;;;;;;;4991363;28;20027;-59
2023/01/20 07:00:54;;;;;;;27.77;15.05;;;;;;;;;;5004345;28;20037;-59
2023/01/20 07:03:19;;;;;;;26.90;13.95;;;;;;;;;;4990059;28;20116;-60
2023/01/20 07:05:55;;;;;;;27.42;14.73;;;;;;;;;;4990463;28;20579;-59
2023/01/20 07:08:20;;;;;;;24.90;13.63;;;;;;;;;;4996689;28;20025;-59
2023/01/20 07:10:46;;;;;;;26.23;14.15;;;;;;;;;;4987850;28;20164;-59
2023/01/20 07:13:11;;;;;;;24.20;13.25;;;;;;;;;;4993591;28;20484;-59
2023/01/20 07:15:36;;;;;;;28.00;13.93;;;;;;;;;;4990482;28;20455;-59
2023/01/20 07:18:02;;;;;;;23.85;13.60;;;;;;;;;;4991501;28;20045;-59
2023/01/20 07:20:27;;;;;;;24.70;13.85;;;;;;;;;;4992407;28;20034;-59
2023/01/20 07:22:52;;;;;;;27.35;15.35;;;;;;;;;;4992569;28;20034;-60
2023/01/20 07:25:18;;;;;;;31.98;16.00;;;;;;;;;;4986338;28;20399;-60
2023/01/20 07:27:43;;;;;;;29.65;16.60;;;;;;;;;;4987970;28;20165;-59
2023/01/20 07:30:09;;;;;;;32.80;16.92;;;;;;;;;;4988928;28;20085;-59
2023/01/20 07:32:34;;;;;;;28.20;16.27;;;;;;;;;;4986896;28;20418;-59
2023/01/20 07:35:00;;;;;;;27.92;16.15;;;;;;;;;;4988432;28;20046;-60
2023/01/20 07:37:25;;;;;;;29.83;16.15;;;;;;;;;;4989793;28;20146;-60
2023/01/20 07:39:50;;;;;;;25.63;14.98;;;;;;;;;;4990163;28;20030;-60
2023/01/20 07:42:16;;;;;;;23.67;14.35;;;;;;;;;;4990387;28;20100;-60
2023/01/20 07:44:41;;;;;;;27.33;15.70;;;;;;;;;;4987079;28;20121;-59
2023/01/20 07:47:06;;;;;;;26.65;14.85;;;;;;;;;;4988189;28;20041;-60
2023/01/20 07:49:32;;;;;;;25.10;14.98;;;;;;;;;;4989674;28;20595;-60
2023/01/20 07:51:57;;;;;;;24.17;13.98;;;;;;;;;;4989949;28;20117;-60
2023/01/20 07:54:22;;;;;;;25.98;14.65;;;;;;;;;;4990066;28;20030;-60
2023/01/20 07:56:48;;;;;;;28.58;15.27;;;;;;;;;;4991133;28;20038;-59
2023/01/20 07:59:13;;;;;;;25.02;15.65;;;;;;;;;;5007737;28;20026;-60
2023/01/20 08:01:39;;;;;;;29.63;16.88;;;;;;;;;;4988694;28;20594;-59
2023/01/20 08:04:04;;;;;;;41.05;22.20;;;;;;;;;;5002077;28;20030;-60
2023/01/20 08:06:30;;;;;;;40.45;21.83;;;;;;;;;;4985197;28;20113;-61
2023/01/20 08:08:58;;;;;;;32.33;17.75;;;;;;;;;;4992835;28;20038;-61
2023/01/20 08:11:24;;;;;;;29.30;16.30;;;;;;;;;;4989127;28;20035;-59
2023/01/20 08:13:49;;;;;;;30.08;16.65;;;;;;;;;;4987528;28;20562;-59
2023/01/20 08:16:16;;;;;;;30.17;16.95;;;;;;;;;;4988048;28;20056;-60
2023/01/20 08:18:42;;;;;;;30.67;16.98;;;;;;;;;;4989001;28;20626;-58
2023/01/20 08:21:20;;;;;;;30.75;18.02;;;;;;;;;;4990431;28;20080;-58
2023/01/20 08:23:45;;;;;;;29.95;17.05;;;;;;;;;;4987805;28;20026;-59
2023/01/20 08:26:11;;;;;;;25.65;15.20;;;;;;;;;;4991447;28;20096;-58
2023/01/20 08:28:36;;;;;;;24.83;15.00;;;;;;;;;;4989346;28;20042;-58
2023/01/20 08:31:10;;;;;;;22.60;14.40;;;;;;;;;;4988395;28;20026;-57
2023/01/20 08:33:37;;;;;;;22.05;14.13;;;;;;;;;;4989247;28;20088;-60
2023/01/20 08:36:16;;;;;;;25.92;14.18;;;;;;;;;;4991057;28;20114;-59
2023/01/20 08:38:43;;;;;;;24.05;13.80;;;;;;;;;;4992205;28;20038;-60
2023/01/20 08:41:11;;;;;;;32.70;17.98;;;;;;;;;;4990607;28;20109;-59
2023/01/20 08:43:37;;;;;;;29.67;16.42;;;;;;;;;;4989291;28;20121;-60
2023/01/20 08:46:09;;;;;;;29.38;16.45;;;;;;;;;;4988738;28;20240;-61
2023/01/20 08:48:36;;;;;;;25.20;14.70;;;;;;;;;;4989540;28;20054;-60
2023/01/20 08:51:19;;;;;;;24.38;13.38;;;;;;;;;;4991121;28;20169;-58
2023/01/20 08:53:44;;;;;;;24.98;14.02;;;;;;;;;;4990553;28;20045;-60
2023/01/20 08:56:11;;;;;;;24.52;14.55;;;;;;;;;;4995725;28;20030;-60
2023/01/20 08:58:37;;;;;;;22.83;13.75;;;;;;;;;;4993532;28;20022;-60
2023/01/20 09:01:08;;;;;;;23.45;14.02;;;;;;;;;;4992852;28;20161;-60
2023/01/20 09:03:33;;;;;;;21.65;13.48;;;;;;;;;;4991837;28;20037;-59
2023/01/20 09:06:02;;;;;;;29.15;18.30;;;;;;;;;;4993512;28;20030;-59
2023/01/20 09:08:27;;;;;;;23.52;14.25;;;;;;;;;;4994934;28;20022;-59
2023/01/20 09:10:53;;;;;;;23.33;13.60;;;;;;;;;;4992282;28;20044;-59
2023/01/20 09:13:18;;;;;;;25.10;13.80;;;;;;;;;;4990221;28;20023;-58
2023/01/20 09:15:50;;;;;;;23.92;13.90;;;;;;;;;;4995575;28;20097;-59
2023/01/20 09:18:15;;;;;;;22.75;12.95;;;;;;;;;;4991808;28;20077;-59
2023/01/20 09:20:41;;;;;;;24.02;13.27;;;;;;;;;;4996308;28;20566;-59
2023/01/20 09:23:06;;;;;;;26.17;14.18;;;;;;;;;;4989144;28;20030;-59
2023/01/20 09:25:31;;;;;;;24.50;14.68;;;;;;;;;;4994110;28;20022;-58
2023/01/20 09:28:00;;;;;;;24.33;13.95;;;;;;;;;;4996704;28;20561;-59
2023/01/20 09:30:26;;;;;;;22.55;13.02;;;;;;;;;;4989102;28;20030;-59
2023/01/20 09:32:54;;;;;;;24.08;13.32;;;;;;;;;;4991868;28;20045;-60
2023/01/20 09:35:19;;;;;;;25.73;12.70;;;;;;;;;;4989960;28;20023;-58
2023/01/20 09:43:53;;;;;;;20.88;12.68;;;;;;;;;;4991174;28;20534;-59
2023/01/20 09:46:42;;;;;;;21.88;13.02;;;;;;;;;;4989039;28;20091;-59
2023/01/20 09:55:30;;;;;;;24.42;12.98;;;;;;;;;;4995754;28;20629;-57
2023/01/20 09:58:33;;;;;;;20.65;12.57;;;;;;;;;;4989301;28;20496;-59
2023/01/20 10:01:37;;;;;;;25.00;13.98;;;;;;;;;;4980310;28;20129;-60
2023/01/20 10:04:23;;;;;;;27.30;13.95;;;;;;;;;;4986590;28;20104;-59
2023/01/20 10:06:52;;;;;;;21.55;12.93;;;;;;;;;;4992667;28;20031;-59
2023/01/20 10:09:23;;;;;;;23.65;13.30;;;;;;;;;;4984763;28;20399;-60
2023/01/20 10:11:54;;;;;;;25.17;13.52;;;;;;;;;;4996401;28;20250;-60
2023/01/20 10:14:33;;;;;;;28.08;13.63;;;;;;;;;;4990230;28;20034;-59
2023/01/20 10:17:22;;;;;;;23.05;13.00;;;;;;;;;;4985587;28;20103;-59
2023/01/20 10:19:58;;;;;;;23.02;12.27;;;;;;;;;;4987145;28;20026;-60
2023/01/20 10:22:41;;;;;;;17.42;11.32;;;;;;;;;;4992734;28;20297;-60
2023/01/20 10:25:30;;;;;;;21.67;12.55;;;;;;;;;;4994356;28;20029;-60
2023/01/20 10:28:07;;;;;;;21.20;11.60;;;;;;;;;;4974275;28;20042;-59
2023/01/20 10:30:35;;;;;;;18.30;12.40;;;;;;;;;;4988290;28;20035;-60
2023/01/20 10:33:10;;;;;;;18.30;11.73;;;;;;;;;;4990845;28;20113;-60
2023/01/20 10:35:57;;;;;;;21.23;12.45;;;;;;;;;;4990446;28;20044;-58
2023/01/20 10:38:32;;;;;;;19.98;11.35;;;;;;;;;;4990217;28;20033;-58
2023/01/20 10:41:19;;;;;;;19.65;10.52;;;;;;;;;;4985144;28;20030;-59
2023/01/20 10:43:45;;;;;;;17.92;10.75;;;;;;;;;;4990760;28;20039;-60
2023/01/20 10:46:38;;;;;;;18.35;10.45;;;;;;;;;;4991258;28;20046;-59
2023/01/20 10:49:19;;;;;;;17.73;10.32;;;;;;;;;;4992628;28;20036;-58
2023/01/20 10:51:52;;;;;;;20.63;11.85;;;;;;;;;;4991644;28;20113;-59
2023/01/20 10:54:17;;;;;;;18.30;11.80;;;;;;;;;;4995035;28;20029;-59
2023/01/20 10:56:52;;;;;;;15.93;9.90;;;;;;;;;;4992024;28;20092;-59
2023/01/20 10:59:36;;;;;;;20.63;10.73;;;;;;;;;;4991240;28;20030;-59
2023/01/20 11:02:28;;;;;;;20.80;11.70;;;;;;;;;;4987887;28;20073;-60
2023/01/20 11:04:58;;;;;;;19.88;10.40;;;;;;;;;;4988408;28;20045;-60
2023/01/20 11:07:25;;;;;;;15.77;9.93;;;;;;;;;;4993516;28;20395;-59
2023/01/20 11:09:51;;;;;;;21.17;10.98;;;;;;;;;;4995507;28;20273;-59
2023/01/20 11:12:21;;;;;;;15.23;9.05;;;;;;;;;;4995701;28;20022;-59
2023/01/20 11:14:46;;;;;;;14.40;8.93;;;;;;;;;;4990593;28;20034;-59
2023/01/20 11:17:16;;;;;;;11.05;7.47;;;;;;;;;;4994551;28;20373;-59
2023/01/20 11:19:53;;;;;;;16.83;8.45;;;;;;;;;;4996803;28;20037;-59
2023/01/20 11:22:34;;;;;;;14.23;7.65;;;;;;;;;;4991347;28;20101;-59
2023/01/20 11:25:02;;;;;;;13.80;8.60;;;;;;;;;;4988200;28;20026;-58
2023/01/20 11:27:35;;;;;;;16.10;9.73;;;;;;;;;;4988224;28;20018;-59
2023/01/20 11:30:17;;;;;;;15.25;8.02;;;;;;;;;;4988545;28;20092;-59
2023/01/20 11:32:42;;;;;;;14.25;8.52;;;;;;;;;;4990385;28;20052;-59
2023/01/20 11:35:23;;;;;;;13.63;8.20;;;;;;;;;;4986832;28;20073;-59
2023/01/20 11:37:48;;;;;;;14.55;9.45;;;;;;;;;;4989451;28;20464;-59
2023/01/20 11:40:23;;;;;;;21.88;11.27;;;;;;;;;;4990482;28;20144;-59
2023/01/20 11:42:50;;;;;;;18.10;9.65;;;;;;;;;;4987623;28;20117;-59
2023/01/20 11:45:26;;;;;;;14.48;9.27;;;;;;;;;;4989302;28;20057;-59
2023/01/20 11:48:22;;;;;;;20.27;11.60;;;;;;;;;;4987989;28;20509;-59
2023/01/20 11:50:53;;;;;;;20.67;12.10;;;;;;;;;;4988235;28;20156;-59
2023/01/20 11:53:24;;;;;;;18.75;12.20;;;;;;;;;;4992958;28;20018;-58
2023/01/20 11:56:13;;;;;;;22.27;11.75;;;;;;;;;;4988509;28;20018;-59
2023/01/20 11:58:53;;;;;;;19.20;11.60;;;;;;;;;;4994249;28;20022;-59
2023/01/20 12:01:22;;;;;;;18.55;10.75;;;;;;;;;;4987317;28;20503;-60
2023/01/20 12:04:23;;;;;;;20.42;11.57;;;;;;;;;;4992163;28;20038;-60
2023/01/20 12:06:57;;;;;;;21.50;11.20;;;;;;;;;;4987489;28;20185;-59
2023/01/20 12:09:29;;;;;;;16.48;10.25;;;;;;;;;;4990382;28;20023;-59
2023/01/20 12:12:20;;;;;;;14.77;9.02;;;;;;;;;;4988855;28;20045;-60
2023/01/20 12:15:13;;;;;;;15.98;8.82;;;;;;;;;;4992538;28;20538;-60
2023/01/20 12:17:52;;;;;;;16.17;10.93;;;;;;;;;;4992370;28;20026;-60
2023/01/20 12:20:52;;;;;;;15.88;9.65;;;;;;;;;;4989431;28;20033;-60
2023/01/20 12:23:32;;;;;;;18.33;9.00;;;;;;;;;;4988060;28;20038;-60
2023/01/20 12:26:02;;;;;;;13.82;9.05;;;;;;;;;;4988073;28;20042;-60
2023/01/20 12:28:53;;;;;;;13.13;7.85;;;;;;;;;;4987058;28;20031;-60
2023/01/20 12:31:22;;;;;;;14.32;7.93;;;;;;;;;;4991294;28;20026;-59
2023/01/20 12:34:00;;;;;;;12.13;8.27;;;;;;;;;;4993448;28;20089;-60
2023/01/20 12:37:02;;;;;;;14.07;8.55;;;;;;;;;;4992409;28;20049;-60
2023/01/20 12:39:41;;;;;;;14.40;8.32;;;;;;;;;;4991362;28;20496;-60
2023/01/20 12:42:06;;;;;;;12.73;8.43;;;;;;;;;;4993257;28;20039;-60
2023/01/20 12:44:51;;;;;;;13.55;8.73;;;;;;;;;;4996248;28;20112;-60
2023/01/20 12:47:43;;;;;;;13.73;8.43;;;;;;;;;;4991001;28;20034;-60
2023/01/20 12:50:27;;;;;;;17.73;9.23;;;;;;;;;;4994701;28;20150;-60
2023/01/20 12:53:02;;;;;;;14.48;8.93;;;;;;;;;;4994211;28;20034;-61
2023/01/20 12:55:39;;;;;;;14.27;9.60;;;;;;;;;;4996845;28;20419;-60
2023/01/20 12:58:32;;;;;;;13.35;8.73;;;;;;;;;;4997198;28;20033;-61
2023/01/20 13:01:08;;;;;;;12.95;8.10;;;;;;;;;;5000880;28;20034;-61
2023/01/20 13:03:49;;;;;;;16.80;9.57;;;;;;;;;;4991006;28;20033;-60
2023/01/20 13:06:18;;;;;;;14.85;9.02;;;;;;;;;;4987798;28;20030;-60
2023/01/20 13:09:02;;;;;;;16.83;9.05;;;;;;;;;;4994087;28;20049;-60
2023/01/20 13:11:46;;;;;;;15.15;9.70;;;;;;;;;;4991573;28;20475;-60
2023/01/20 13:14:40;;;;;;;14.32;8.68;;;;;;;;;;4992295;28;20459;-60
2023/01/20 13:17:28;;;;;;;15.63;9.23;;;;;;;;;;4986910;28;20098;-60
2023/01/20 13:19:57;;;;;;;20.45;12.10;;;;;;;;;;5008847;28;20030;-60
2023/01/20 13:22:24;;;;;;;18.52;11.25;;;;;;;;;;4995432;28;20388;-61
2023/01/20 13:24:54;;;;;;;14.32;9.80;;;;;;;;;;4990821;28;20030;-60
2023/01/20 13:27:35;;;;;;;15.10;8.88;;;;;;;;;;4990979;28;20099;-60
2023/01/20 13:30:04;;;;;;;13.77;8.40;;;;;;;;;;4990653;28;20183;-60
2023/01/20 13:32:42;;;;;;;13.02;8.75;;;;;;;;;;4991378;28;20030;-60
2023/01/20 13:35:40;;;;;;;15.27;8.90;;;;;;;;;;4989283;28;20026;-60
2023/01/20 13:38:18;;;;;;;12.07;8.63;;;;;;;;;;4986835;28;20109;-61
2023/01/20 13:40:48;;;;;;;14.10;8.15;;;;;;;;;;4993709;28;20032;-60
2023/01/20 13:43:22;;;;;;;12.35;8.77;;;;;;;;;;4990340;28;20558;-60
2023/01/20 13:46:08;;;;;;;15.68;8.77;;;;;;;;;;4990317;28;20034;-60
2023/01/20 13:48:42;;;;;;;12.13;8.73;;;;;;;;;;4989022;28;20511;-61
2023/01/20 13:51:25;;;;;;;14.95;9.55;;;;;;;;;;4996911;28;20085;-60
2023/01/20 13:53:50;;;;;;;19.67;10.88;;;;;;;;;;4988842;28;20049;-61
2023/01/20 13:56:25;;;;;;;15.48;10.02;;;;;;;;;;4989911;28;20715;-61
2023/01/20 13:58:51;;;;;;;17.35;10.38;;;;;;;;;;4990231;28;20034;-61
2023/01/20 14:01:16;;;;;;;20.67;11.00;;;;;;;;;;4994402;28;20114;-61
2023/01/20 14:03:42;;;;;;;18.25;11.98;;;;;;;;;;4996395;28;20121;-61
2023/01/20 14:06:13;;;;;;;23.35;15.50;;;;;;;;;;4999907;28;20038;-60
2023/01/20 14:08:41;;;;;;;25.10;13.68;;;;;;;;;;4993551;28;20030;-61
2023/01/20 14:11:16;;;;;;;24.67;13.63;;;;;;;;;;4985208;28;20164;-60
2023/01/20 14:14:09;;;;;;;18.08;11.20;;;;;;;;;;4992044;28;20407;-61
2023/01/20 14:16:35;;;;;;;17.55;10.93;;;;;;;;;;4992041;28;20039;-60
2023/01/20 14:19:18;;;;;;;19.20;12.15;;;;;;;;;;4990917;28;20518;-60
2023/01/20 14:21:51;;;;;;;31.45;15.75;;;;;;;;;;4998945;28;20046;-59
2023/01/20 14:24:32;;;;;;;36.53;16.63;;;;;;;;;;4989169;28;20041;-60
2023/01/20 14:27:30;;;;;;;29.92;13.73;;;;;;;;;;4982656;28;20522;-60
2023/01/20 14:30:11;;;;;;;40.30;16.10;;;;;;;;;;4988169;28;20030;-60
2023/01/20 14:32:37;;;;;;;32.83;14.00;;;;;;;;;;4989873;28;20467;-59
2023/01/20 14:35:15;;;;;;;18.95;10.73;;;;;;;;;;4992039;28;20033;-60
2023/01/20 14:37:42;;;;;;;15.13;7.25;;;;;;;;;;4989046;28;20041;-59
2023/01/20 14:40:10;;;;;;;21.23;10.80;;;;;;;;;;4989312;28;20038;-60
2023/01/20 14:42:37;;;;;;;19.15;10.95;;;;;;;;;;4995240;28;20069;-60
2023/01/20 14:45:17;;;;;;;18.70;11.48;;;;;;;;;;4989584;28;20045;-60
2023/01/20 14:47:42;;;;;;;23.10;12.50;;;;;;;;;;4991747;28;20034;-60
2023/01/20 14:50:12;;;;;;;15.40;9.57;;;;;;;;;;4988313;28;20406;-60
2023/01/20 14:52:37;;;;;;;;;;;;;;;;;;4988881;28;20510;-60
2023/01/20 14:55:03;;;;;;;16.40;9.73;;;;;;;;;;4989556;28;19921;-60
2023/01/20 14:57:46;;;;;;;17.15;9.80;;;;;;;;;;4992066;28;20022;-59
2023/01/20 15:00:19;;;;;;;15.07;9.73;;;;;;;;;;4991760;28;20030;-59